sensor_id;sensor_type;location;lat;lon;timestamp;P1;durP1;ratioP1;P2;durP2;ratioP2
12925;SDS011;6529;50.566;9.774;2023-11-21T00:01:39;3.10;;;2.23;;
12925;SDS011;6529;50.566;9.774;2023-11-21T00:04:05;2.50;;;1.73;;
12925;SDS011;6529;50.566;9.774;2023-11-21T00:06:32;4.10;;;2.23;;
12925;SDS011;6529;50.566;9.774;2023-11-21T00:08:58;4.27;;;2.07;;
12925;SDS011;6529;50.566;9.774;2023-11-21T00:11:23;3.67;;;1.93;;
12925;SDS011;6529;50.566;9.774;2023-11-21T00:13:50;2.50;;;2.10;;
12925;SDS011;6529;50.566;9.774;2023-11-21T00:16:15;2.50;;;2.00;;
12925;SDS011;6529;50.566;9.774;2023-11-21T00:18:41;2.50;;;1.90;;
12925;SDS011;6529;50.566;9.774;2023-11-21T00:21:07;4.50;;;1.97;;
12925;SDS011;6529;50.566;9.774;2023-11-21T00:23:34;2.33;;;1.90;;
12925;SDS011;6529;50.566;9.774;2023-11-21T00:26:00;3.00;;;1.90;;
12925;SDS011;6529;50.566;9.774;2023-11-21T00:28:26;3.20;;;1.70;;
12925;SDS011;6529;50.566;9.774;2023-11-21T00:30:51;3.97;;;2.03;;
12925;SDS011;6529;50.566;9.774;2023-11-21T00:33:17;4.17;;;1.97;;
12925;SDS011;6529;50.566;9.774;2023-11-21T00:35:42;4.73;;;2.30;;
12925;SDS011;6529;50.566;9.774;2023-11-21T00:38:08;2.50;;;2.20;;
12925;SDS011;6529;50.566;9.774;2023-11-21T00:40:34;3.70;;;2.20;;
12925;SDS011;6529;50.566;9.774;2023-11-21T00:42:59;6.37;;;2.57;;
12925;SDS011;6529;50.566;9.774;2023-11-21T00:45:25;5.10;;;2.40;;
12925;SDS011;6529;50.566;9.774;2023-11-21T00:47:50;3.70;;;2.13;;
12925;SDS011;6529;50.566;9.774;2023-11-21T00:50:16;2.93;;;2.20;;
12925;SDS011;6529;50.566;9.774;2023-11-21T00:52:41;3.10;;;2.17;;
12925;SDS011;6529;50.566;9.774;2023-11-21T00:55:07;2.20;;;2.00;;
12925;SDS011;6529;50.566;9.774;2023-11-21T00:57:34;2.37;;;2.13;;
12925;SDS011;6529;50.566;9.774;2023-11-21T01:00:00;2.60;;;2.10;;
12925;SDS011;6529;50.566;9.774;2023-11-21T01:02:25;4.67;;;2.10;;
12925;SDS011;6529;50.566;9.774;2023-11-21T01:04:51;3.07;;;1.87;;
12925;SDS011;6529;50.566;9.774;2023-11-21T01:07:17;3.20;;;2.10;;
12925;SDS011;6529;50.566;9.774;2023-11-21T01:09:45;2.83;;;2.13;;
12925;SDS011;6529;50.566;9.774;2023-11-21T01:12:11;3.63;;;2.20;;
12925;SDS011;6529;50.566;9.774;2023-11-21T01:14:36;3.17;;;2.10;;
12925;SDS011;6529;50.566;9.774;2023-11-21T01:17:02;4.43;;;2.00;;
12925;SDS011;6529;50.566;9.774;2023-11-21T01:19:29;1.67;;;1.50;;
12925;SDS011;6529;50.566;9.774;2023-11-21T01:21:55;3.13;;;1.43;;
12925;SDS011;6529;50.566;9.774;2023-11-21T01:24:22;2.73;;;1.60;;
12925;SDS011;6529;50.566;9.774;2023-11-21T01:26:48;3.33;;;2.13;;
12925;SDS011;6529;50.566;9.774;2023-11-21T01:29:14;2.13;;;1.50;;
12925;SDS011;6529;50.566;9.774;2023-11-21T01:31:40;2.47;;;1.50;;
12925;SDS011;6529;50.566;9.774;2023-11-21T01:34:06;2.57;;;1.60;;
12925;SDS011;6529;50.566;9.774;2023-11-21T01:36:32;1.83;;;1.70;;
12925;SDS011;6529;50.566;9.774;2023-11-21T01:38:58;2.27;;;1.43;;
12925;SDS011;6529;50.566;9.774;2023-11-21T01:41:27;3.03;;;1.40;;
12925;SDS011;6529;50.566;9.774;2023-11-21T01:43:56;3.23;;;1.67;;
12925;SDS011;6529;50.566;9.774;2023-11-21T01:46:22;3.40;;;1.50;;
12925;SDS011;6529;50.566;9.774;2023-11-21T01:48:48;1.87;;;1.63;;
12925;SDS011;6529;50.566;9.774;2023-11-21T01:51:14;1.60;;;1.50;;
12925;SDS011;6529;50.566;9.774;2023-11-21T01:53:40;3.70;;;1.50;;
12925;SDS011;6529;50.566;9.774;2023-11-21T01:56:06;2.60;;;1.53;;
12925;SDS011;6529;50.566;9.774;2023-11-21T01:58:33;2.90;;;1.63;;
12925;SDS011;6529;50.566;9.774;2023-11-21T02:00:59;1.77;;;1.30;;
12925;SDS011;6529;50.566;9.774;2023-11-21T02:03:25;1.20;;;1.10;;
12925;SDS011;6529;50.566;9.774;2023-11-21T02:05:51;2.40;;;1.30;;
12925;SDS011;6529;50.566;9.774;2023-11-21T02:08:18;1.10;;;1.00;;
12925;SDS011;6529;50.566;9.774;2023-11-21T02:10:44;2.47;;;1.00;;
12925;SDS011;6529;50.566;9.774;2023-11-21T02:13:10;3.63;;;1.20;;
12925;SDS011;6529;50.566;9.774;2023-11-21T02:15:36;1.67;;;1.30;;
12925;SDS011;6529;50.566;9.774;2023-11-21T02:18:03;2.03;;;1.20;;
12925;SDS011;6529;50.566;9.774;2023-11-21T02:20:31;3.03;;;1.20;;
12925;SDS011;6529;50.566;9.774;2023-11-21T02:22:59;5.27;;;1.40;;
12925;SDS011;6529;50.566;9.774;2023-11-21T02:25:35;1.87;;;1.20;;
12925;SDS011;6529;50.566;9.774;2023-11-21T02:28:02;1.53;;;1.23;;
12925;SDS011;6529;50.566;9.774;2023-11-21T02:30:28;2.30;;;1.13;;
12925;SDS011;6529;50.566;9.774;2023-11-21T02:32:56;2.17;;;1.20;;
12925;SDS011;6529;50.566;9.774;2023-11-21T02:35:22;3.00;;;1.13;;
12925;SDS011;6529;50.566;9.774;2023-11-21T02:37:48;2.27;;;1.00;;
12925;SDS011;6529;50.566;9.774;2023-11-21T02:40:14;2.20;;;0.83;;
12925;SDS011;6529;50.566;9.774;2023-11-21T02:42:45;1.50;;;0.97;;
12925;SDS011;6529;50.566;9.774;2023-11-21T02:45:12;2.47;;;1.40;;
12925;SDS011;6529;50.566;9.774;2023-11-21T02:47:41;4.20;;;1.80;;
12925;SDS011;6529;50.566;9.774;2023-11-21T02:50:08;3.83;;;2.00;;
12925;SDS011;6529;50.566;9.774;2023-11-21T02:52:34;2.10;;;1.70;;
12925;SDS011;6529;50.566;9.774;2023-11-21T02:55:00;2.87;;;2.10;;
12925;SDS011;6529;50.566;9.774;2023-11-21T02:57:27;2.23;;;2.00;;
12925;SDS011;6529;50.566;9.774;2023-11-21T02:59:52;3.33;;;1.90;;
12925;SDS011;6529;50.566;9.774;2023-11-21T03:02:18;1.60;;;1.23;;
12925;SDS011;6529;50.566;9.774;2023-11-21T03:04:43;2.87;;;1.97;;
12925;SDS011;6529;50.566;9.774;2023-11-21T03:07:09;1.70;;;1.20;;
12925;SDS011;6529;50.566;9.774;2023-11-21T03:09:35;1.30;;;1.20;;
12925;SDS011;6529;50.566;9.774;2023-11-21T03:12:00;1.10;;;1.00;;
12925;SDS011;6529;50.566;9.774;2023-11-21T03:14:26;1.20;;;1.10;;
12925;SDS011;6529;50.566;9.774;2023-11-21T03:16:51;2.03;;;0.90;;
12925;SDS011;6529;50.566;9.774;2023-11-21T03:19:17;2.37;;;1.20;;
12925;SDS011;6529;50.566;9.774;2023-11-21T03:21:43;1.97;;;0.90;;
12925;SDS011;6529;50.566;9.774;2023-11-21T03:24:08;1.20;;;0.80;;
12925;SDS011;6529;50.566;9.774;2023-11-21T03:26:34;2.80;;;0.90;;
12925;SDS011;6529;50.566;9.774;2023-11-21T03:28:59;1.57;;;0.80;;
12925;SDS011;6529;50.566;9.774;2023-11-21T03:31:25;1.33;;;0.70;;
12925;SDS011;6529;50.566;9.774;2023-11-21T03:33:51;1.33;;;0.80;;
12925;SDS011;6529;50.566;9.774;2023-11-21T03:36:18;0.93;;;0.70;;
12925;SDS011;6529;50.566;9.774;2023-11-21T03:38:44;1.40;;;0.80;;
12925;SDS011;6529;50.566;9.774;2023-11-21T03:41:10;1.43;;;0.70;;
12925;SDS011;6529;50.566;9.774;2023-11-21T03:43:36;2.60;;;0.70;;
12925;SDS011;6529;50.566;9.774;2023-11-21T03:46:02;1.23;;;0.70;;
12925;SDS011;6529;50.566;9.774;2023-11-21T03:48:28;1.17;;;0.67;;
12925;SDS011;6529;50.566;9.774;2023-11-21T03:50:54;0.83;;;0.80;;
12925;SDS011;6529;50.566;9.774;2023-11-21T03:53:19;1.67;;;0.80;;
12925;SDS011;6529;50.566;9.774;2023-11-21T03:55:45;2.63;;;1.10;;
12925;SDS011;6529;50.566;9.774;2023-11-21T03:58:11;1.87;;;1.10;;
12925;SDS011;6529;50.566;9.774;2023-11-21T04:00:36;2.20;;;1.50;;
12925;SDS011;6529;50.566;9.774;2023-11-21T04:03:02;2.27;;;1.33;;
12925;SDS011;6529;50.566;9.774;2023-11-21T04:05:28;2.10;;;1.60;;
12925;SDS011;6529;50.566;9.774;2023-11-21T04:07:53;2.43;;;1.53;;
12925;SDS011;6529;50.566;9.774;2023-11-21T04:10:19;2.53;;;1.50;;
12925;SDS011;6529;50.566;9.774;2023-11-21T04:12:45;1.70;;;1.43;;
12925;SDS011;6529;50.566;9.774;2023-11-21T04:15:11;4.70;;;1.60;;
12925;SDS011;6529;50.566;9.774;2023-11-21T04:17:38;2.20;;;1.40;;
12925;SDS011;6529;50.566;9.774;2023-11-21T04:20:04;2.47;;;1.60;;
12925;SDS011;6529;50.566;9.774;2023-11-21T04:22:33;1.93;;;1.43;;
12925;SDS011;6529;50.566;9.774;2023-11-21T04:25:01;1.60;;;1.50;;
12925;SDS011;6529;50.566;9.774;2023-11-21T04:27:27;1.90;;;1.57;;
12925;SDS011;6529;50.566;9.774;2023-11-21T04:29:52;2.57;;;2.00;;
12925;SDS011;6529;50.566;9.774;2023-11-21T04:32:18;2.77;;;1.60;;
12925;SDS011;6529;50.566;9.774;2023-11-21T04:34:43;2.60;;;1.87;;
12925;SDS011;6529;50.566;9.774;2023-11-21T04:37:09;1.83;;;1.70;;
12925;SDS011;6529;50.566;9.774;2023-11-21T04:39:35;2.20;;;2.00;;
12925;SDS011;6529;50.566;9.774;2023-11-21T04:42:01;2.70;;;2.00;;
12925;SDS011;6529;50.566;9.774;2023-11-21T04:44:27;3.50;;;2.00;;
12925;SDS011;6529;50.566;9.774;2023-11-21T04:46:52;3.73;;;1.87;;
12925;SDS011;6529;50.566;9.774;2023-11-21T04:49:18;1.90;;;1.70;;
12925;SDS011;6529;50.566;9.774;2023-11-21T04:51:43;2.03;;;1.83;;
12925;SDS011;6529;50.566;9.774;2023-11-21T04:54:09;2.57;;;1.90;;
12925;SDS011;6529;50.566;9.774;2023-11-21T04:56:35;3.13;;;1.67;;
12925;SDS011;6529;50.566;9.774;2023-11-21T04:59:00;3.20;;;1.80;;
12925;SDS011;6529;50.566;9.774;2023-11-21T05:01:26;2.23;;;1.80;;
12925;SDS011;6529;50.566;9.774;2023-11-21T05:03:52;2.70;;;1.77;;
12925;SDS011;6529;50.566;9.774;2023-11-21T05:06:17;2.47;;;1.90;;
12925;SDS011;6529;50.566;9.774;2023-11-21T05:08:43;4.17;;;2.10;;
12925;SDS011;6529;50.566;9.774;2023-11-21T05:11:09;2.13;;;1.93;;
12925;SDS011;6529;50.566;9.774;2023-11-21T05:13:35;4.43;;;2.53;;
12925;SDS011;6529;50.566;9.774;2023-11-21T05:16:01;2.80;;;2.30;;
12925;SDS011;6529;50.566;9.774;2023-11-21T05:18:29;2.50;;;2.07;;
12925;SDS011;6529;50.566;9.774;2023-11-21T05:20:55;3.77;;;2.00;;
12925;SDS011;6529;50.566;9.774;2023-11-21T05:23:21;5.23;;;2.60;;
12925;SDS011;6529;50.566;9.774;2023-11-21T05:25:47;4.27;;;2.80;;
12925;SDS011;6529;50.566;9.774;2023-11-21T05:28:12;4.57;;;3.10;;
12925;SDS011;6529;50.566;9.774;2023-11-21T05:30:38;5.17;;;3.30;;
12925;SDS011;6529;50.566;9.774;2023-11-21T05:33:04;4.13;;;3.30;;
12925;SDS011;6529;50.566;9.774;2023-11-21T05:35:30;5.50;;;3.80;;
12925;SDS011;6529;50.566;9.774;2023-11-21T05:37:56;4.97;;;3.67;;
12925;SDS011;6529;50.566;9.774;2023-11-21T05:40:21;6.63;;;3.87;;
12925;SDS011;6529;50.566;9.774;2023-11-21T05:42:47;6.20;;;4.10;;
12925;SDS011;6529;50.566;9.774;2023-11-21T05:45:13;6.63;;;4.50;;
12925;SDS011;6529;50.566;9.774;2023-11-21T05:47:43;6.23;;;4.80;;
12925;SDS011;6529;50.566;9.774;2023-11-21T05:50:11;7.47;;;4.37;;
12925;SDS011;6529;50.566;9.774;2023-11-21T05:52:39;6.70;;;4.50;;
12925;SDS011;6529;50.566;9.774;2023-11-21T05:55:05;11.37;;;8.73;;
12925;SDS011;6529;50.566;9.774;2023-11-21T05:57:35;9.60;;;7.53;;
12925;SDS011;6529;50.566;9.774;2023-11-21T06:00:05;7.07;;;5.67;;
12925;SDS011;6529;50.566;9.774;2023-11-21T06:02:36;17.87;;;15.07;;
12925;SDS011;6529;50.566;9.774;2023-11-21T06:05:03;10.67;;;8.57;;
12925;SDS011;6529;50.566;9.774;2023-11-21T06:07:29;6.43;;;4.83;;
12925;SDS011;6529;50.566;9.774;2023-11-21T06:09:54;6.00;;;4.57;;
12925;SDS011;6529;50.566;9.774;2023-11-21T06:12:20;6.53;;;4.40;;
12925;SDS011;6529;50.566;9.774;2023-11-21T06:14:46;6.83;;;4.93;;
12925;SDS011;6529;50.566;9.774;2023-11-21T06:17:13;6.77;;;4.90;;
12925;SDS011;6529;50.566;9.774;2023-11-21T06:19:38;7.80;;;5.10;;
12925;SDS011;6529;50.566;9.774;2023-11-21T06:22:04;7.73;;;4.77;;
12925;SDS011;6529;50.566;9.774;2023-11-21T06:24:30;6.33;;;5.00;;
12925;SDS011;6529;50.566;9.774;2023-11-21T06:26:56;6.17;;;4.37;;
12925;SDS011;6529;50.566;9.774;2023-11-21T06:29:22;8.10;;;4.80;;
12925;SDS011;6529;50.566;9.774;2023-11-21T06:31:48;6.30;;;4.80;;
12925;SDS011;6529;50.566;9.774;2023-11-21T06:34:14;7.47;;;4.87;;
12925;SDS011;6529;50.566;9.774;2023-11-21T06:36:40;6.30;;;4.30;;
12925;SDS011;6529;50.566;9.774;2023-11-21T06:39:06;5.20;;;4.03;;
12925;SDS011;6529;50.566;9.774;2023-11-21T06:41:33;6.37;;;4.50;;
12925;SDS011;6529;50.566;9.774;2023-11-21T06:43:58;7.20;;;4.63;;
12925;SDS011;6529;50.566;9.774;2023-11-21T06:46:24;6.30;;;4.40;;
12925;SDS011;6529;50.566;9.774;2023-11-21T06:48:50;6.17;;;4.83;;
12925;SDS011;6529;50.566;9.774;2023-11-21T06:51:15;5.50;;;4.30;;
12925;SDS011;6529;50.566;9.774;2023-11-21T06:53:41;7.23;;;4.90;;
12925;SDS011;6529;50.566;9.774;2023-11-21T06:56:16;7.47;;;5.20;;
12925;SDS011;6529;50.566;9.774;2023-11-21T06:58:43;6.57;;;4.63;;
12925;SDS011;6529;50.566;9.774;2023-11-21T07:01:10;6.60;;;4.67;;
12925;SDS011;6529;50.566;9.774;2023-11-21T07:03:36;7.43;;;4.53;;
12925;SDS011;6529;50.566;9.774;2023-11-21T07:06:02;6.37;;;4.47;;
12925;SDS011;6529;50.566;9.774;2023-11-21T07:08:28;5.27;;;4.07;;
12925;SDS011;6529;50.566;9.774;2023-11-21T07:10:54;8.97;;;4.07;;
12925;SDS011;6529;50.566;9.774;2023-11-21T07:13:19;7.07;;;4.37;;
12925;SDS011;6529;50.566;9.774;2023-11-21T07:15:46;7.17;;;5.17;;
12925;SDS011;6529;50.566;9.774;2023-11-21T07:18:13;6.70;;;4.93;;
12925;SDS011;6529;50.566;9.774;2023-11-21T07:20:38;8.00;;;4.70;;
12925;SDS011;6529;50.566;9.774;2023-11-21T07:23:04;6.93;;;4.73;;
12925;SDS011;6529;50.566;9.774;2023-11-21T07:25:30;8.00;;;5.73;;
12925;SDS011;6529;50.566;9.774;2023-11-21T07:27:56;6.37;;;4.83;;
12925;SDS011;6529;50.566;9.774;2023-11-21T07:30:22;8.50;;;5.13;;
12925;SDS011;6529;50.566;9.774;2023-11-21T07:32:48;8.00;;;5.13;;
12925;SDS011;6529;50.566;9.774;2023-11-21T07:35:14;6.27;;;4.43;;
12925;SDS011;6529;50.566;9.774;2023-11-21T07:37:39;6.07;;;4.53;;
12925;SDS011;6529;50.566;9.774;2023-11-21T07:40:05;6.43;;;4.60;;
12925;SDS011;6529;50.566;9.774;2023-11-21T07:42:33;6.47;;;4.37;;
12925;SDS011;6529;50.566;9.774;2023-11-21T07:44:59;10.27;;;4.80;;
12925;SDS011;6529;50.566;9.774;2023-11-21T07:47:25;6.23;;;4.33;;
12925;SDS011;6529;50.566;9.774;2023-11-21T07:49:52;9.97;;;5.63;;
12925;SDS011;6529;50.566;9.774;2023-11-21T07:52:18;11.00;;;5.20;;
12925;SDS011;6529;50.566;9.774;2023-11-21T07:54:46;38.23;;;7.23;;
12925;SDS011;6529;50.566;9.774;2023-11-21T07:57:11;25.43;;;6.77;;
12925;SDS011;6529;50.566;9.774;2023-11-21T07:59:38;27.60;;;5.73;;
12925;SDS011;6529;50.566;9.774;2023-11-21T08:02:08;27.27;;;6.10;;
12925;SDS011;6529;50.566;9.774;2023-11-21T08:04:33;18.47;;;5.50;;
12925;SDS011;6529;50.566;9.774;2023-11-21T08:07:00;27.50;;;5.63;;
12925;SDS011;6529;50.566;9.774;2023-11-21T08:09:26;36.50;;;22.40;;
12925;SDS011;6529;50.566;9.774;2023-11-21T08:11:52;18.20;;;6.07;;
12925;SDS011;6529;50.566;9.774;2023-11-21T08:14:18;39.30;;;27.83;;
12925;SDS011;6529;50.566;9.774;2023-11-21T08:16:45;11.30;;;7.37;;
12925;SDS011;6529;50.566;9.774;2023-11-21T08:19:10;10.20;;;6.80;;
12925;SDS011;6529;50.566;9.774;2023-11-21T08:21:36;14.73;;;8.67;;
12925;SDS011;6529;50.566;9.774;2023-11-21T08:24:05;10.23;;;6.63;;
12925;SDS011;6529;50.566;9.774;2023-11-21T08:26:35;11.70;;;7.17;;
12925;SDS011;6529;50.566;9.774;2023-11-21T08:29:01;12.50;;;7.30;;
12925;SDS011;6529;50.566;9.774;2023-11-21T08:31:27;10.63;;;6.50;;
12925;SDS011;6529;50.566;9.774;2023-11-21T08:33:53;10.77;;;5.90;;
12925;SDS011;6529;50.566;9.774;2023-11-21T08:36:21;8.70;;;5.77;;
12925;SDS011;6529;50.566;9.774;2023-11-21T08:38:49;10.17;;;6.40;;
12925;SDS011;6529;50.566;9.774;2023-11-21T08:41:17;11.67;;;7.70;;
12925;SDS011;6529;50.566;9.774;2023-11-21T08:43:46;10.47;;;6.50;;
12925;SDS011;6529;50.566;9.774;2023-11-21T08:46:15;38.20;;;26.50;;
12925;SDS011;6529;50.566;9.774;2023-11-21T08:48:42;9.43;;;6.53;;
12925;SDS011;6529;50.566;9.774;2023-11-21T08:51:09;13.70;;;7.40;;
12925;SDS011;6529;50.566;9.774;2023-11-21T08:53:39;10.33;;;6.90;;
12925;SDS011;6529;50.566;9.774;2023-11-21T08:56:04;12.40;;;6.60;;
12925;SDS011;6529;50.566;9.774;2023-11-21T08:58:31;13.80;;;10.93;;
12925;SDS011;6529;50.566;9.774;2023-11-21T09:00:57;15.73;;;8.50;;
12925;SDS011;6529;50.566;9.774;2023-11-21T09:03:23;16.97;;;11.37;;
12925;SDS011;6529;50.566;9.774;2023-11-21T09:05:49;9.73;;;6.77;;
12925;SDS011;6529;50.566;9.774;2023-11-21T09:08:14;12.33;;;8.33;;
12925;SDS011;6529;50.566;9.774;2023-11-21T09:10:40;11.43;;;7.40;;
12925;SDS011;6529;50.566;9.774;2023-11-21T09:13:08;19.80;;;16.33;;
12925;SDS011;6529;50.566;9.774;2023-11-21T09:15:34;21.03;;;14.30;;
12925;SDS011;6529;50.566;9.774;2023-11-21T09:18:00;15.50;;;11.13;;
12925;SDS011;6529;50.566;9.774;2023-11-21T09:20:26;11.40;;;7.30;;
12925;SDS011;6529;50.566;9.774;2023-11-21T09:22:52;14.37;;;8.20;;
12925;SDS011;6529;50.566;9.774;2023-11-21T09:25:19;11.63;;;7.30;;
12925;SDS011;6529;50.566;9.774;2023-11-21T09:27:46;11.17;;;7.40;;
12925;SDS011;6529;50.566;9.774;2023-11-21T09:30:12;18.47;;;12.40;;
12925;SDS011;6529;50.566;9.774;2023-11-21T09:32:39;11.77;;;8.40;;
12925;SDS011;6529;50.566;9.774;2023-11-21T09:35:05;16.83;;;10.93;;
12925;SDS011;6529;50.566;9.774;2023-11-21T09:37:33;10.20;;;7.60;;
12925;SDS011;6529;50.566;9.774;2023-11-21T09:40:00;11.53;;;6.30;;
12925;SDS011;6529;50.566;9.774;2023-11-21T09:42:28;14.67;;;9.53;;
12925;SDS011;6529;50.566;9.774;2023-11-21T09:47:38;10.87;;;6.73;;
12925;SDS011;6529;50.566;9.774;2023-11-21T09:50:04;30.67;;;20.77;;
12925;SDS011;6529;50.566;9.774;2023-11-21T09:52:33;13.33;;;7.93;;
12925;SDS011;6529;50.566;9.774;2023-11-21T09:55:22;27.73;;;16.93;;
12925;SDS011;6529;50.566;9.774;2023-11-21T09:57:52;24.57;;;15.00;;
12925;SDS011;6529;50.566;9.774;2023-11-21T10:00:20;11.63;;;7.87;;
12925;SDS011;6529;50.566;9.774;2023-11-21T10:02:48;15.30;;;10.03;;
12925;SDS011;6529;50.566;9.774;2023-11-21T10:05:14;11.67;;;8.13;;
12925;SDS011;6529;50.566;9.774;2023-11-21T10:07:42;12.57;;;7.20;;
12925;SDS011;6529;50.566;9.774;2023-11-21T10:10:09;10.77;;;6.40;;
12925;SDS011;6529;50.566;9.774;2023-11-21T10:12:36;9.47;;;5.97;;
12925;SDS011;6529;50.566;9.774;2023-11-21T10:15:03;11.37;;;6.17;;
12925;SDS011;6529;50.566;9.774;2023-11-21T10:17:33;10.10;;;6.50;;
12925;SDS011;6529;50.566;9.774;2023-11-21T10:20:08;8.37;;;5.70;;
12925;SDS011;6529;50.566;9.774;2023-11-21T10:22:38;12.20;;;6.67;;
12925;SDS011;6529;50.566;9.774;2023-11-21T10:25:07;12.90;;;8.93;;
12925;SDS011;6529;50.566;9.774;2023-11-21T10:27:34;11.43;;;6.67;;
12925;SDS011;6529;50.566;9.774;2023-11-21T10:30:03;12.10;;;7.53;;
12925;SDS011;6529;50.566;9.774;2023-11-21T10:32:29;9.13;;;6.13;;
12925;SDS011;6529;50.566;9.774;2023-11-21T10:34:58;6.83;;;5.20;;
12925;SDS011;6529;50.566;9.774;2023-11-21T10:37:31;7.37;;;5.03;;
12925;SDS011;6529;50.566;9.774;2023-11-21T10:40:00;7.70;;;5.10;;
12925;SDS011;6529;50.566;9.774;2023-11-21T10:42:26;7.47;;;4.67;;
12925;SDS011;6529;50.566;9.774;2023-11-21T10:44:54;6.27;;;4.80;;
12925;SDS011;6529;50.566;9.774;2023-11-21T10:47:20;8.20;;;4.60;;
12925;SDS011;6529;50.566;9.774;2023-11-21T10:49:50;7.03;;;4.70;;
12925;SDS011;6529;50.566;9.774;2023-11-21T10:52:18;6.50;;;4.60;;
12925;SDS011;6529;50.566;9.774;2023-11-21T10:54:45;7.93;;;4.67;;
12925;SDS011;6529;50.566;9.774;2023-11-21T10:57:11;8.30;;;5.20;;
12925;SDS011;6529;50.566;9.774;2023-11-21T10:59:42;8.17;;;4.90;;
12925;SDS011;6529;50.566;9.774;2023-11-21T11:02:23;9.37;;;6.50;;
12925;SDS011;6529;50.566;9.774;2023-11-21T11:04:53;9.53;;;4.80;;
12925;SDS011;6529;50.566;9.774;2023-11-21T11:07:25;6.50;;;5.03;;
12925;SDS011;6529;50.566;9.774;2023-11-21T11:09:55;7.57;;;5.40;;
12925;SDS011;6529;50.566;9.774;2023-11-21T11:12:21;7.77;;;5.30;;
12925;SDS011;6529;50.566;9.774;2023-11-21T11:14:47;7.47;;;5.10;;
12925;SDS011;6529;50.566;9.774;2023-11-21T11:17:14;8.13;;;6.70;;
12925;SDS011;6529;50.566;9.774;2023-11-21T11:19:39;11.37;;;5.77;;
12925;SDS011;6529;50.566;9.774;2023-11-21T11:27:37;10.87;;;6.03;;
12925;SDS011;6529;50.566;9.774;2023-11-21T11:38:22;10.63;;;6.20;;
12925;SDS011;6529;50.566;9.774;2023-11-21T11:40:48;10.10;;;6.03;;
12925;SDS011;6529;50.566;9.774;2023-11-21T11:43:25;7.87;;;5.60;;
12925;SDS011;6529;50.566;9.774;2023-11-21T11:45:52;9.83;;;6.17;;
12925;SDS011;6529;50.566;9.774;2023-11-21T11:48:21;9.30;;;6.07;;
12925;SDS011;6529;50.566;9.774;2023-11-21T11:51:03;9.70;;;6.33;;
12925;SDS011;6529;50.566;9.774;2023-11-21T11:53:34;10.13;;;6.50;;
12925;SDS011;6529;50.566;9.774;2023-11-21T11:58:54;26.93;;;18.63;;
12925;SDS011;6529;50.566;9.774;2023-11-21T12:01:21;11.97;;;7.77;;
12925;SDS011;6529;50.566;9.774;2023-11-21T12:06:42;10.87;;;7.07;;
12925;SDS011;6529;50.566;9.774;2023-11-21T12:09:18;14.07;;;8.57;;
12925;SDS011;6529;50.566;9.774;2023-11-21T12:11:46;9.80;;;7.00;;
12925;SDS011;6529;50.566;9.774;2023-11-21T12:14:13;14.90;;;9.10;;
12925;SDS011;6529;50.566;9.774;2023-11-21T12:16:39;11.10;;;9.00;;
12925;SDS011;6529;50.566;9.774;2023-11-21T12:19:05;10.70;;;7.40;;
12925;SDS011;6529;50.566;9.774;2023-11-21T12:21:31;12.73;;;7.10;;
12925;SDS011;6529;50.566;9.774;2023-11-21T12:23:57;10.33;;;7.43;;
12925;SDS011;6529;50.566;9.774;2023-11-21T12:26:26;14.57;;;8.03;;
12925;SDS011;6529;50.566;9.774;2023-11-21T12:28:52;14.77;;;7.73;;
12925;SDS011;6529;50.566;9.774;2023-11-21T12:31:24;15.17;;;8.37;;
12925;SDS011;6529;50.566;9.774;2023-11-21T12:33:49;11.10;;;7.40;;
12925;SDS011;6529;50.566;9.774;2023-11-21T12:36:16;9.87;;;7.37;;
12925;SDS011;6529;50.566;9.774;2023-11-21T12:42:19;12.30;;;8.30;;
12925;SDS011;6529;50.566;9.774;2023-11-21T12:44:46;14.03;;;7.70;;
12925;SDS011;6529;50.566;9.774;2023-11-21T12:47:15;12.37;;;8.47;;
12925;SDS011;6529;50.566;9.774;2023-11-21T12:49:42;12.80;;;7.63;;
12925;SDS011;6529;50.566;9.774;2023-11-21T12:52:09;11.93;;;7.73;;
12925;SDS011;6529;50.566;9.774;2023-11-21T12:54:35;13.50;;;7.90;;
12925;SDS011;6529;50.566;9.774;2023-11-21T12:57:00;11.07;;;7.67;;
12925;SDS011;6529;50.566;9.774;2023-11-21T12:59:27;11.43;;;7.03;;
12925;SDS011;6529;50.566;9.774;2023-11-21T13:01:54;14.57;;;6.97;;
12925;SDS011;6529;50.566;9.774;2023-11-21T13:04:29;13.73;;;7.87;;
12925;SDS011;6529;50.566;9.774;2023-11-21T13:07:02;12.10;;;7.10;;
12925;SDS011;6529;50.566;9.774;2023-11-21T13:09:31;9.80;;;6.50;;
12925;SDS011;6529;50.566;9.774;2023-11-21T13:12:01;11.07;;;6.80;;
12925;SDS011;6529;50.566;9.774;2023-11-21T13:14:29;9.83;;;7.00;;
12925;SDS011;6529;50.566;9.774;2023-11-21T13:16:56;11.97;;;6.90;;
12925;SDS011;6529;50.566;9.774;2023-11-21T13:19:22;10.80;;;5.93;;
12925;SDS011;6529;50.566;9.774;2023-11-21T13:21:49;11.23;;;6.50;;
12925;SDS011;6529;50.566;9.774;2023-11-21T13:24:15;10.03;;;6.10;;
12925;SDS011;6529;50.566;9.774;2023-11-21T13:26:44;12.83;;;6.60;;
12925;SDS011;6529;50.566;9.774;2023-11-21T13:29:19;11.70;;;6.97;;
12925;SDS011;6529;50.566;9.774;2023-11-21T13:49:45;11.63;;;6.50;;
12925;SDS011;6529;50.566;9.774;2023-11-21T13:52:12;12.03;;;6.57;;
12925;SDS011;6529;50.566;9.774;2023-11-21T13:54:41;12.13;;;6.10;;
12925;SDS011;6529;50.566;9.774;2023-11-21T13:57:07;9.83;;;6.00;;
12925;SDS011;6529;50.566;9.774;2023-11-21T13:59:32;10.17;;;6.10;;
12925;SDS011;6529;50.566;9.774;2023-11-21T14:01:58;12.30;;;6.33;;
12925;SDS011;6529;50.566;9.774;2023-11-21T14:04:42;10.07;;;5.63;;
12925;SDS011;6529;50.566;9.774;2023-11-21T14:07:21;14.00;;;8.10;;
12925;SDS011;6529;50.566;9.774;2023-11-21T14:10:00;13.13;;;8.50;;
12925;SDS011;6529;50.566;9.774;2023-11-21T14:12:28;10.57;;;6.40;;
12925;SDS011;6529;50.566;9.774;2023-11-21T14:14:54;16.90;;;9.60;;
12925;SDS011;6529;50.566;9.774;2023-11-21T14:17:20;14.47;;;8.53;;
12925;SDS011;6529;50.566;9.774;2023-11-21T14:19:47;15.33;;;9.57;;
12925;SDS011;6529;50.566;9.774;2023-11-21T14:22:14;13.63;;;7.60;;
12925;SDS011;6529;50.566;9.774;2023-11-21T14:24:40;10.33;;;6.83;;
12925;SDS011;6529;50.566;9.774;2023-11-21T14:27:10;11.53;;;7.07;;
12925;SDS011;6529;50.566;9.774;2023-11-21T14:29:36;14.87;;;8.57;;
12925;SDS011;6529;50.566;9.774;2023-11-21T14:32:04;13.23;;;7.40;;
12925;SDS011;6529;50.566;9.774;2023-11-21T14:34:30;10.47;;;6.77;;
12925;SDS011;6529;50.566;9.774;2023-11-21T14:36:56;17.67;;;11.30;;
12925;SDS011;6529;50.566;9.774;2023-11-21T14:39:22;12.17;;;6.80;;
12925;SDS011;6529;50.566;9.774;2023-11-21T14:41:48;13.67;;;7.70;;
12925;SDS011;6529;50.566;9.774;2023-11-21T14:44:14;12.57;;;6.93;;
12925;SDS011;6529;50.566;9.774;2023-11-21T14:46:40;12.07;;;6.97;;
12925;SDS011;6529;50.566;9.774;2023-11-21T14:49:11;11.37;;;6.73;;
12925;SDS011;6529;50.566;9.774;2023-11-21T14:51:47;13.87;;;6.93;;
12925;SDS011;6529;50.566;9.774;2023-11-21T14:54:32;14.80;;;7.10;;
12925;SDS011;6529;50.566;9.774;2023-11-21T14:57:11;11.77;;;6.43;;
12925;SDS011;6529;50.566;9.774;2023-11-21T14:59:49;11.80;;;6.57;;
12925;SDS011;6529;50.566;9.774;2023-11-21T15:02:22;12.23;;;6.27;;
12925;SDS011;6529;50.566;9.774;2023-11-21T15:05:08;9.67;;;6.53;;
12925;SDS011;6529;50.566;9.774;2023-11-21T15:07:40;14.30;;;7.13;;
12925;SDS011;6529;50.566;9.774;2023-11-21T15:10:06;12.73;;;6.80;;
12925;SDS011;6529;50.566;9.774;2023-11-21T15:12:37;12.10;;;6.43;;
12925;SDS011;6529;50.566;9.774;2023-11-21T15:15:05;11.87;;;6.37;;
12925;SDS011;6529;50.566;9.774;2023-11-21T15:17:35;12.20;;;6.73;;
12925;SDS011;6529;50.566;9.774;2023-11-21T15:20:01;12.30;;;6.77;;
12925;SDS011;6529;50.566;9.774;2023-11-21T15:22:28;10.63;;;6.67;;
12925;SDS011;6529;50.566;9.774;2023-11-21T15:24:54;12.10;;;6.03;;
12925;SDS011;6529;50.566;9.774;2023-11-21T15:27:21;8.33;;;5.57;;
12925;SDS011;6529;50.566;9.774;2023-11-21T15:29:47;10.47;;;5.17;;
12925;SDS011;6529;50.566;9.774;2023-11-21T15:32:12;10.63;;;5.93;;
12925;SDS011;6529;50.566;9.774;2023-11-21T15:34:38;8.73;;;5.50;;
12925;SDS011;6529;50.566;9.774;2023-11-21T15:37:04;7.70;;;5.23;;
12925;SDS011;6529;50.566;9.774;2023-11-21T15:39:34;11.60;;;5.40;;